Time;durP1;ratioP1;P1;durP2;ratioP2;P2;SDS_P1;SDS_P2;PMS_P1;PMS_P2;Temp;Humidity;BMP_temperature;BMP_pressure;BME280_temperature;BME280_humidity;BME280_pressure;Samples;Min_cycle;Max_cycle;Signal;HPM_P1;HPM_P2
2021/10/19 00:00:54;;;;;;;24.83;16.63;;;;;;;;;;5111073;28;20020;-71
2021/10/19 00:03:20;;;;;;;22.90;15.45;;;;;;;;;;5110710;28;20065;-71
2021/10/19 00:05:47;;;;;;;21.88;15.55;;;;;;;;;;5110003;28;20098;-71
2021/10/19 00:14:20;;;;;;;29.52;17.60;;;;;;;;;;5111082;28;20042;-71
2021/10/19 00:16:46;;;;;;;24.92;17.27;;;;;;;;;;5110787;28;20107;-71
2021/10/19 00:19:12;;;;;;;25.25;18.00;;;;;;;;;;5110534;28;20498;-71
2021/10/19 00:21:39;;;;;;;27.35;19.02;;;;;;;;;;5110710;28;20028;-71
2021/10/19 00:24:05;;;;;;;26.98;17.17;;;;;;;;;;5110192;28;20024;-70
2021/10/19 00:26:31;;;;;;;25.65;17.23;;;;;;;;;;5109219;28;20036;-70
2021/10/19 00:28:57;;;;;;;26.27;17.83;;;;;;;;;;5109298;28;20107;-71
2021/10/19 00:31:23;;;;;;;24.70;17.23;;;;;;;;;;5110045;28;20038;-71
2021/10/19 00:33:49;;;;;;;28.63;18.77;;;;;;;;;;5110589;28;20024;-72
2021/10/19 00:36:16;;;;;;;24.92;16.60;;;;;;;;;;5110590;28;20024;-71
2021/10/19 00:38:42;;;;;;;20.10;14.80;;;;;;;;;;5110100;28;20023;-71
2021/10/19 00:41:08;;;;;;;24.92;15.77;;;;;;;;;;5109074;28;20043;-72
2021/10/19 00:43:34;;;;;;;25.75;15.57;;;;;;;;;;5110346;28;20081;-71
2021/10/19 00:46:20;;;;;;;24.88;16.58;;;;;;;;;;5111086;27;20919;-70
2021/10/19 00:48:46;;;;;;;24.25;16.42;;;;;;;;;;5111281;28;20038;-70
2021/10/19 00:52:03;;;;;;;23.92;14.68;;;;;;;;;;5111569;27;20442;-71
2021/10/19 00:54:29;;;;;;;24.33;16.92;;;;;;;;;;5110904;28;20437;-71
2021/10/19 00:56:56;;;;;;;23.48;16.63;;;;;;;;;;5109989;28;20031;-71
2021/10/19 00:59:25;;;;;;;23.95;16.08;;;;;;;;;;5111173;28;20019;-71
2021/10/19 01:01:51;;;;;;;24.80;15.82;;;;;;;;;;5111252;28;20024;-72
2021/10/19 01:04:17;;;;;;;23.75;16.30;;;;;;;;;;5109846;28;20081;-71
2021/10/19 01:06:43;;;;;;;26.55;17.17;;;;;;;;;;5110666;28;20032;-71
2021/10/19 01:09:10;;;;;;;24.05;15.60;;;;;;;;;;5111096;28;20023;-71
2021/10/19 01:11:36;;;;;;;24.05;16.00;;;;;;;;;;5110915;28;20129;-71
2021/10/19 01:14:02;;;;;;;27.20;16.73;;;;;;;;;;5110532;28;20101;-71
2021/10/19 01:16:28;;;;;;;25.40;16.55;;;;;;;;;;5109669;28;20024;-71
2021/10/19 01:19:23;;;;;;;24.45;16.10;;;;;;;;;;5111584;27;20412;-70
2021/10/19 01:21:59;;;;;;;24.35;16.83;;;;;;;;;;5109591;28;20434;-70
2021/10/19 01:24:26;;;;;;;25.08;15.95;;;;;;;;;;5111460;28;20028;-69
2021/10/19 01:26:52;;;;;;;25.80;16.48;;;;;;;;;;5111170;28;20107;-69
2021/10/19 01:29:18;;;;;;;24.08;16.30;;;;;;;;;;5109365;28;20016;-69
2021/10/19 01:31:48;;;;;;;21.13;14.93;;;;;;;;;;5111159;28;20073;-70
2021/10/19 01:34:15;;;;;;;23.23;15.77;;;;;;;;;;5111071;28;20426;-70
2021/10/19 01:36:41;;;;;;;23.77;15.38;;;;;;;;;;5110518;28;20024;-70
2021/10/19 01:39:08;;;;;;;24.33;15.63;;;;;;;;;;5110865;28;20081;-70
2021/10/19 01:41:34;;;;;;;24.35;17.25;;;;;;;;;;5110742;28;20460;-72
2021/10/19 01:46:33;;;;;;;25.73;15.82;;;;;;;;;;5111283;27;20415;-69
2021/10/19 01:49:00;;;;;;;23.85;16.33;;;;;;;;;;5109477;28;20028;-69
2021/10/19 01:52:37;;;;;;;23.80;16.60;;;;;;;;;;5111272;27;20409;-70
2021/10/19 01:55:04;;;;;;;26.75;16.10;;;;;;;;;;5110016;28;20078;-70
2021/10/19 01:59:37;;;;;;;25.50;15.52;;;;;;;;;;5112156;27;20393;-72
2021/10/19 02:02:04;;;;;;;25.77;17.05;;;;;;;;;;5111389;28;20433;-72
2021/10/19 02:04:30;;;;;;;23.17;16.13;;;;;;;;;;5110856;28;20077;-69
2021/10/19 02:06:56;;;;;;;23.55;15.85;;;;;;;;;;5111561;28;20103;-72
2021/10/19 02:09:22;;;;;;;23.00;16.60;;;;;;;;;;5111157;28;20023;-72
2021/10/19 02:11:48;;;;;;;25.13;16.10;;;;;;;;;;5109346;28;20024;-70
2021/10/19 02:14:14;;;;;;;20.65;15.18;;;;;;;;;;5111082;28;20028;-70
2021/10/19 02:16:41;;;;;;;24.60;15.82;;;;;;;;;;5109278;28;20440;-71
2021/10/19 02:19:07;;;;;;;26.33;16.52;;;;;;;;;;5111115;28;20092;-70
2021/10/19 02:21:33;;;;;;;23.90;15.60;;;;;;;;;;5111126;28;20016;-70
2021/10/19 02:23:59;;;;;;;25.52;16.55;;;;;;;;;;5110440;28;20069;-70
2021/10/19 02:26:25;;;;;;;24.85;16.77;;;;;;;;;;5109603;28;20388;-70
2021/10/19 02:28:51;;;;;;;25.70;16.23;;;;;;;;;;5110908;28;20051;-70
2021/10/19 02:31:18;;;;;;;25.75;16.83;;;;;;;;;;5109154;28;20020;-70
2021/10/19 02:33:44;;;;;;;26.52;16.13;;;;;;;;;;5110884;28;20047;-70
2021/10/19 02:36:10;;;;;;;24.05;16.17;;;;;;;;;;5110627;28;20360;-71
2021/10/19 02:38:36;;;;;;;24.25;15.20;;;;;;;;;;5110226;28;20035;-71
2021/10/19 02:41:02;;;;;;;21.58;15.48;;;;;;;;;;5110553;28;20023;-70
2021/10/19 02:43:28;;;;;;;24.55;15.45;;;;;;;;;;5109230;28;20032;-71
2021/10/19 02:45:54;;;;;;;25.77;15.30;;;;;;;;;;5110107;28;20472;-70
2021/10/19 02:48:21;;;;;;;22.67;16.10;;;;;;;;;;5109110;28;20031;-70
2021/10/19 02:50:47;;;;;;;24.90;15.27;;;;;;;;;;5110417;28;20024;-71
2021/10/19 02:53:13;;;;;;;25.08;16.10;;;;;;;;;;5108760;28;20024;-71
2021/10/19 02:55:40;;;;;;;22.50;15.65;;;;;;;;;;5110292;28;20031;-71
2021/10/19 02:58:07;;;;;;;27.88;15.52;;;;;;;;;;5110006;28;20518;-71
2021/10/19 03:00:33;;;;;;;23.00;15.70;;;;;;;;;;5109806;28;20100;-71
2021/10/19 03:02:59;;;;;;;25.05;14.68;;;;;;;;;;5110118;28;20031;-70
2021/10/19 03:05:25;;;;;;;26.15;15.65;;;;;;;;;;5110350;28;20034;-71
2021/10/19 03:07:51;;;;;;;28.80;15.88;;;;;;;;;;5108302;28;20379;-71
2021/10/19 03:10:17;;;;;;;22.90;15.52;;;;;;;;;;5098975;28;20123;-71
2021/10/19 03:12:44;;;;;;;25.70;16.48;;;;;;;;;;5095051;28;20028;-71
2021/10/19 03:15:10;;;;;;;24.65;15.30;;;;;;;;;;5096007;28;20043;-70
2021/10/19 03:17:36;;;;;;;21.80;14.40;;;;;;;;;;5096289;28;20357;-71
2021/10/19 03:20:03;;;;;;;20.92;14.15;;;;;;;;;;5095831;28;20032;-71
2021/10/19 03:22:29;;;;;;;25.52;16.13;;;;;;;;;;5096321;28;20024;-70
2021/10/19 03:24:56;;;;;;;28.42;18.05;;;;;;;;;;5094886;28;20482;-70
2021/10/19 03:27:22;;;;;;;24.77;16.92;;;;;;;;;;5095638;28;20020;-70
2021/10/19 03:29:48;;;;;;;28.38;16.77;;;;;;;;;;5096338;28;20081;-70
2021/10/19 03:32:14;;;;;;;27.95;17.85;;;;;;;;;;5095990;28;20020;-71
2021/10/19 03:34:40;;;;;;;26.27;18.63;;;;;;;;;;5094284;28;20024;-71
2021/10/19 03:37:07;;;;;;;21.20;15.45;;;;;;;;;;5094608;28;20024;-71
2021/10/19 03:39:33;;;;;;;23.83;14.82;;;;;;;;;;5096092;28;20115;-71
2021/10/19 03:42:00;;;;;;;22.50;14.80;;;;;;;;;;5094135;28;20406;-71
2021/10/19 03:44:26;;;;;;;20.40;13.13;;;;;;;;;;5094495;28;20026;-71
2021/10/19 03:46:52;;;;;;;21.30;14.10;;;;;;;;;;5095783;28;20361;-71
2021/10/19 03:49:18;;;;;;;22.90;14.52;;;;;;;;;;5094024;28;20031;-71
2021/10/19 03:51:44;;;;;;;21.73;13.13;;;;;;;;;;5095636;28;20031;-71
2021/10/19 03:54:10;;;;;;;20.13;13.32;;;;;;;;;;5095666;28;20104;-73
2021/10/19 03:56:37;;;;;;;23.15;14.07;;;;;;;;;;5095193;28;20469;-71
2021/10/19 03:59:03;;;;;;;33.95;23.63;;;;;;;;;;5094034;28;20048;-71
2021/10/19 04:01:29;;;;;;;28.90;17.73;;;;;;;;;;5095633;28;20059;-71
2021/10/19 04:03:55;;;;;;;27.35;16.30;;;;;;;;;;5095081;28;20499;-71
2021/10/19 04:06:21;;;;;;;21.67;13.48;;;;;;;;;;5095304;28;20055;-71
2021/10/19 04:08:47;;;;;;;23.27;15.55;;;;;;;;;;5095380;28;20032;-72
2021/10/19 04:11:14;;;;;;;21.90;15.40;;;;;;;;;;5093864;28;20062;-71
2021/10/19 04:13:40;;;;;;;49.33;26.63;;;;;;;;;;5095300;28;20089;-71
2021/10/19 04:16:06;;;;;;;56.05;33.22;;;;;;;;;;5093628;28;20024;-72
2021/10/19 04:18:32;;;;;;;51.05;31.17;;;;;;;;;;5093802;28;20035;-73
2021/10/19 04:20:58;;;;;;;44.17;25.52;;;;;;;;;;5094552;28;20096;-72
2021/10/19 04:23:25;;;;;;;35.55;22.80;;;;;;;;;;5093281;28;20365;-72
2021/10/19 04:25:51;;;;;;;31.92;19.90;;;;;;;;;;5095034;28;20024;-72
2021/10/19 04:28:17;;;;;;;32.47;18.95;;;;;;;;;;5095143;28;20032;-72
2021/10/19 04:30:45;;;;;;;33.53;19.60;;;;;;;;;;5094698;28;20596;-72
2021/10/19 04:33:12;;;;;;;28.45;16.13;;;;;;;;;;5094903;28;20380;-72
2021/10/19 04:35:38;;;;;;;24.92;16.15;;;;;;;;;;5094899;28;20035;-72
2021/10/19 04:38:04;;;;;;;26.73;17.48;;;;;;;;;;5094409;28;20563;-72
2021/10/19 04:40:30;;;;;;;31.25;19.00;;;;;;;;;;5093433;28;20020;-72
2021/10/19 04:42:56;;;;;;;26.30;18.63;;;;;;;;;;5094725;28;20431;-72
2021/10/19 04:45:23;;;;;;;27.08;19.17;;;;;;;;;;5092994;28;20020;-72
2021/10/19 04:47:50;;;;;;;30.85;21.77;;;;;;;;;;5094620;28;20030;-72
2021/10/19 04:50:16;;;;;;;43.05;25.95;;;;;;;;;;5094570;28;20412;-72
2021/10/19 04:52:42;;;;;;;35.85;23.23;;;;;;;;;;5094021;28;20020;-71
2021/10/19 04:55:09;;;;;;;32.45;20.33;;;;;;;;;;5093123;28;20035;-71
2021/10/19 04:57:35;;;;;;;27.15;17.02;;;;;;;;;;5092885;28;20044;-70
2021/10/19 05:00:01;;;;;;;28.45;19.05;;;;;;;;;;5092749;28;20024;-71
2021/10/19 05:02:27;;;;;;;30.98;20.15;;;;;;;;;;5092098;28;20065;-71
2021/10/19 05:04:54;;;;;;;31.50;19.25;;;;;;;;;;5113375;28;20096;-70
2021/10/19 05:07:20;;;;;;;29.08;19.48;;;;;;;;;;5112556;28;20023;-71
2021/10/19 05:09:46;;;;;;;29.48;19.20;;;;;;;;;;5114370;27;20024;-67
2021/10/19 05:12:12;;;;;;;32.10;20.13;;;;;;;;;;5102152;28;20024;-67
2021/10/19 05:14:38;;;;;;;28.08;18.27;;;;;;;;;;5092270;28;20363;-70
2021/10/19 05:17:05;;;;;;;30.80;20.00;;;;;;;;;;5092489;28;20024;-66
2021/10/19 05:19:32;;;;;;;32.70;22.00;;;;;;;;;;5089196;28;20036;-66
2021/10/19 05:21:58;;;;;;;35.38;21.77;;;;;;;;;;5091584;28;20028;-67
2021/10/19 05:24:25;;;;;;;35.10;22.80;;;;;;;;;;5093299;28;20078;-68
2021/10/19 05:26:51;;;;;;;29.08;18.77;;;;;;;;;;5092918;28;20020;-69
2021/10/19 05:29:21;;;;;;;34.65;20.55;;;;;;;;;;5093164;28;20065;-66
2021/10/19 05:31:52;;;;;;;33.08;21.10;;;;;;;;;;5093297;28;20110;-70
2021/10/19 05:34:19;;;;;;;28.35;19.40;;;;;;;;;;5111715;28;20023;-69
2021/10/19 05:36:45;;;;;;;26.20;16.75;;;;;;;;;;5113791;28;20399;-67
2021/10/19 05:39:15;;;;;;;27.67;17.17;;;;;;;;;;5114232;28;20028;-68
2021/10/19 05:41:41;;;;;;;25.08;17.50;;;;;;;;;;5113534;28;20019;-66
2021/10/19 05:44:07;;;;;;;29.70;19.30;;;;;;;;;;5113804;28;20095;-66
2021/10/19 05:46:33;;;;;;;30.13;18.63;;;;;;;;;;5113599;28;20028;-65
2021/10/19 05:48:59;;;;;;;41.17;24.75;;;;;;;;;;5099852;28;20425;-67
2021/10/19 05:51:26;;;;;;;35.03;21.92;;;;;;;;;;5109305;28;20107;-67
2021/10/19 05:53:52;;;;;;;26.38;16.80;;;;;;;;;;5097119;28;20032;-66
2021/10/19 05:56:18;;;;;;;29.80;18.83;;;;;;;;;;5088487;28;20063;-67
2021/10/19 05:58:44;;;;;;;32.10;20.90;;;;;;;;;;5089941;28;20044;-65
2021/10/19 06:01:10;;;;;;;25.25;16.55;;;;;;;;;;5091467;28;20023;-65
2021/10/19 06:03:37;;;;;;;28.08;17.48;;;;;;;;;;5091777;28;20506;-66
2021/10/19 06:06:07;;;;;;;23.20;15.50;;;;;;;;;;5090492;28;20028;-64
2021/10/19 06:08:33;;;;;;;25.05;16.33;;;;;;;;;;5079385;28;20036;-67
2021/10/19 06:11:00;;;;;;;30.92;19.25;;;;;;;;;;5107738;28;20142;-67
2021/10/19 06:13:30;;;;;;;24.55;16.38;;;;;;;;;;5112409;28;20055;-66
2021/10/19 06:15:56;;;;;;;27.27;18.10;;;;;;;;;;5111771;28;20102;-67
2021/10/19 06:18:24;;;;;;;27.15;15.95;;;;;;;;;;5110630;28;20036;-66
2021/10/19 06:20:51;;;;;;;28.30;16.38;;;;;;;;;;5094684;28;20027;-68
2021/10/19 06:23:20;;;;;;;27.10;16.08;;;;;;;;;;5101562;28;20019;-68
2021/10/19 06:25:47;;;;;;;28.13;16.67;;;;;;;;;;5109385;28;20479;-67
2021/10/19 06:28:13;;;;;;;23.02;14.70;;;;;;;;;;5091875;28;20035;-68
2021/10/19 06:30:39;;;;;;;26.70;15.85;;;;;;;;;;5090110;28;20032;-67
2021/10/19 06:33:05;;;;;;;20.50;14.38;;;;;;;;;;5090503;28;20104;-68
2021/10/19 06:37:10;;;;;;;20.20;12.63;;;;;;;;;;5066522;28;20472;-67
2021/10/19 06:40:26;;;;;;;18.80;12.15;;;;;;;;;;5109756;27;20923;-69
2021/10/19 06:42:52;;;;;;;19.85;12.82;;;;;;;;;;5110300;28;20046;-67
2021/10/19 06:46:43;;;;;;;23.38;13.75;;;;;;;;;;5109999;27;20416;-68
2021/10/19 06:49:09;;;;;;;21.13;13.07;;;;;;;;;;5127328;28;20474;-69
2021/10/19 06:51:35;;;;;;;22.58;14.18;;;;;;;;;;5121897;28;20020;-69
2021/10/19 06:55:48;;;;;;;23.23;14.63;;;;;;;;;;5109948;27;20446;-69
2021/10/19 06:58:12;;;;;;;18.70;12.30;;;;;;;;;;5085339;28;20516;-68
2021/10/19 07:00:39;;;;;;;17.45;12.27;;;;;;;;;;5110207;28;20035;-68
2021/10/19 07:03:05;;;;;;;16.75;11.38;;;;;;;;;;5108001;28;20059;-68
2021/10/19 07:06:56;;;;;;;20.13;12.32;;;;;;;;;;5108798;27;20422;-70
2021/10/19 07:09:23;;;;;;;21.42;13.32;;;;;;;;;;5108544;28;20036;-70
2021/10/19 07:11:52;;;;;;;18.38;12.20;;;;;;;;;;5106668;28;20026;-69
2021/10/19 07:14:19;;;;;;;18.85;10.38;;;;;;;;;;5107748;28;20028;-67
2021/10/19 07:16:48;;;;;;;18.50;10.27;;;;;;;;;;5109820;28;20030;-70
2021/10/19 07:19:14;;;;;;;16.35;10.65;;;;;;;;;;5109854;28;20034;-69
2021/10/19 07:23:47;;;;;;;18.27;10.52;;;;;;;;;;5090034;28;20440;-67
2021/10/19 07:26:13;;;;;;;25.92;17.25;;;;;;;;;;5089406;28;20028;-67
2021/10/19 07:29:13;;;;;;;22.42;13.13;;;;;;;;;;5128605;27;20317;-67
2021/10/19 07:31:39;;;;;;;23.25;15.48;;;;;;;;;;5107090;28;20172;-67
2021/10/19 07:34:05;;;;;;;25.02;16.50;;;;;;;;;;5102820;28;20169;-67
2021/10/19 07:38:48;;;;;;;25.27;14.95;;;;;;;;;;5127809;27;20471;-71
2021/10/19 07:41:14;;;;;;;18.67;11.00;;;;;;;;;;5127604;28;20024;-69
2021/10/19 07:45:17;;;;;;;21.58;12.07;;;;;;;;;;5109074;27;20420;-69
2021/10/19 07:48:51;;;;;;;14.80;10.15;;;;;;;;;;5108030;27;20414;-69
2021/10/19 07:51:17;;;;;;;17.77;11.32;;;;;;;;;;5110193;28;20032;-70
2021/10/19 07:55:10;;;;;;;18.60;11.40;;;;;;;;;;5068645;28;20400;-71
2021/10/19 07:57:47;;;;;;;15.07;9.57;;;;;;;;;;5066388;28;20591;-69
2021/10/19 08:00:14;;;;;;;16.10;10.88;;;;;;;;;;5066284;28;20021;-69
2021/10/19 08:02:49;;;;;;;19.38;11.45;;;;;;;;;;5067874;28;20025;-69
2021/10/19 08:08:49;;;;;;;11.93;6.63;;;;;;;;;;5067609;28;20401;-70
2021/10/19 08:13:06;;;;;;;10.23;6.13;;;;;;;;;;5069429;28;20795;-70
2021/10/19 08:15:33;;;;;;;13.05;6.57;;;;;;;;;;5068575;28;20021;-69
2021/10/19 08:18:00;;;;;;;13.23;6.65;;;;;;;;;;5066468;28;20488;-69
2021/10/19 08:20:26;;;;;;;10.88;7.15;;;;;;;;;;5067505;28;20021;-70
2021/10/19 08:24:29;;;;;;;11.48;6.80;;;;;;;;;;5104832;27;20826;-70
2021/10/19 08:26:55;;;;;;;13.85;7.50;;;;;;;;;;5105263;28;20085;-70
2021/10/19 08:29:21;;;;;;;10.38;6.05;;;;;;;;;;5107223;28;20382;-71
2021/10/19 08:31:48;;;;;;;20.08;5.90;;;;;;;;;;5107554;28;20031;-70
2021/10/19 08:34:14;;;;;;;8.70;5.20;;;;;;;;;;5108143;28;20365;-74
2021/10/19 08:36:40;;;;;;;9.88;5.47;;;;;;;;;;5109062;28;20471;-74
2021/10/19 08:39:07;;;;;;;14.95;6.22;;;;;;;;;;5109006;28;20020;-73
2021/10/19 08:47:48;;;;;;;11.68;4.32;;;;;;;;;;4629971;27;12462689;-70
2021/10/19 08:52:23;;;;;;;7.95;4.38;;;;;;;;;;5130161;27;20406;-71
2021/10/19 08:54:50;;;;;;;10.73;4.93;;;;;;;;;;5131074;28;20027;-69
2021/10/19 08:57:16;;;;;;;8.77;5.03;;;;;;;;;;5131269;28;20036;-67
2021/10/19 08:59:44;;;;;;;7.13;3.95;;;;;;;;;;5130885;28;20459;-68
2021/10/19 09:02:11;;;;;;;7.40;4.53;;;;;;;;;;5131299;28;20051;-68
2021/10/19 09:04:37;;;;;;;9.80;4.20;;;;;;;;;;5131279;28;20028;-70
2021/10/19 09:08:01;;;;;;;9.43;4.50;;;;;;;;;;5110934;27;20843;-70
2021/10/19 09:10:42;;;;;;;9.90;5.45;;;;;;;;;;5110530;27;20450;-71
2021/10/19 09:13:18;;;;;;;10.90;5.50;;;;;;;;;;5106251;28;20045;-69
2021/10/19 09:15:46;;;;;;;10.82;5.57;;;;;;;;;;5108645;28;20055;-71
2021/10/19 09:18:18;;;;;;;8.65;3.95;;;;;;;;;;5109710;28;20032;-71
2021/10/19 09:20:46;;;;;;;16.45;4.60;;;;;;;;;;5109886;28;20059;-69
2021/10/19 09:23:14;;;;;;;6.70;3.50;;;;;;;;;;5110517;28;20031;-69
2021/10/19 09:25:55;;;;;;;7.38;3.92;;;;;;;;;;5110186;27;20462;-69
2021/10/19 09:28:55;;;;;;;9.02;3.83;;;;;;;;;;5110563;28;20074;-71
2021/10/19 09:31:21;;;;;;;10.93;5.13;;;;;;;;;;5093207;28;20036;-69
2021/10/19 09:34:06;;;;;;;9.88;5.10;;;;;;;;;;5110853;28;20085;-70
2021/10/19 09:36:33;;;;;;;6.43;3.38;;;;;;;;;;5106725;28;20035;-70
2021/10/19 09:38:59;;;;;;;6.35;3.00;;;;;;;;;;5108722;28;20036;-68
2021/10/19 09:41:26;;;;;;;6.65;3.22;;;;;;;;;;5109514;28;20073;-69
2021/10/19 09:43:53;;;;;;;6.55;3.30;;;;;;;;;;5110375;28;20027;-71
2021/10/19 09:46:23;;;;;;;6.10;3.03;;;;;;;;;;5108935;28;20452;-69
2021/10/19 09:50:06;;;;;;;5.88;3.10;;;;;;;;;;5107188;27;20121;-70
2021/10/19 09:53:35;;;;;;;6.43;3.50;;;;;;;;;;5110246;27;20814;-68
2021/10/19 09:56:01;;;;;;;8.18;3.75;;;;;;;;;;5109961;28;20484;-70
2021/10/19 09:59:35;;;;;;;12.82;9.13;;;;;;;;;;5142915;27;20387;-68
2021/10/19 10:04:19;;;;;;;6.85;3.40;;;;;;;;;;5068417;28;20403;-67
2021/10/19 10:06:46;;;;;;;7.03;3.65;;;;;;;;;;5059971;28;20027;-68
2021/10/19 10:09:12;;;;;;;5.82;3.25;;;;;;;;;;5069750;28;20020;-69
2021/10/19 10:12:27;;;;;;;8.63;4.43;;;;;;;;;;5166843;27;20314;-70
2021/10/19 10:14:53;;;;;;;7.68;3.92;;;;;;;;;;5151970;27;20038;-70
2021/10/19 10:17:20;;;;;;;8.82;3.92;;;;;;;;;;5152155;27;20458;-70
2021/10/19 10:19:46;;;;;;;6.88;3.70;;;;;;;;;;5152486;27;20059;-70
2021/10/19 10:25:24;;;;;;;5.85;3.00;;;;;;;;;;5111510;27;20426;-65
2021/10/19 10:27:50;;;;;;;5.18;3.20;;;;;;;;;;5111257;28;20383;-67
2021/10/19 10:30:23;;;;;;;7.32;3.35;;;;;;;;;;5109204;28;20034;-69
2021/10/19 10:32:50;;;;;;;7.13;4.30;;;;;;;;;;5110808;28;20479;-68
2021/10/19 10:35:17;;;;;;;7.70;4.60;;;;;;;;;;5110775;28;20028;-67
2021/10/19 10:39:00;;;;;;;10.35;5.13;;;;;;;;;;5108693;27;20395;-68
2021/10/19 10:41:36;;;;;;;9.90;5.93;;;;;;;;;;5110835;28;20365;-65
2021/10/19 10:44:02;;;;;;;9.65;5.47;;;;;;;;;;5110339;28;20047;-70
2021/10/19 10:51:42;;;;;;;9.50;4.68;;;;;;;;;;5078915;27;1532964;-71
2021/10/19 10:54:13;;;;;;;8.05;4.10;;;;;;;;;;5109253;28;20477;-71
2021/10/19 10:56:43;;;;;;;12.88;7.18;;;;;;;;;;5109942;28;20027;-70
2021/10/19 10:59:09;;;;;;;7.53;4.75;;;;;;;;;;5110386;28;20091;-70
2021/10/19 11:01:36;;;;;;;11.40;5.25;;;;;;;;;;5110218;28;20058;-71
2021/10/19 11:05:04;;;;;;;10.18;5.60;;;;;;;;;;5110368;27;20388;-69
2021/10/19 11:07:33;;;;;;;13.57;5.75;;;;;;;;;;5109725;28;20091;-69
2021/10/19 11:10:18;;;;;;;9.82;5.45;;;;;;;;;;5108529;27;20908;-67
2021/10/19 11:12:45;;;;;;;7.18;4.30;;;;;;;;;;5110322;28;20106;-67
2021/10/19 11:15:16;;;;;;;9.18;4.82;;;;;;;;;;5111222;28;20377;-66
2021/10/19 11:18:20;;;;;;;8.15;4.10;;;;;;;;;;5109821;27;20396;-65
2021/10/19 11:20:54;;;;;;;7.28;4.50;;;;;;;;;;5092896;28;20058;-67
2021/10/19 11:23:20;;;;;;;7.57;4.25;;;;;;;;;;5095944;28;20775;-66
2021/10/19 11:25:47;;;;;;;9.50;5.55;;;;;;;;;;5099677;28;20059;-67
2021/10/19 11:28:13;;;;;;;11.98;5.38;;;;;;;;;;5109527;28;20051;-67
2021/10/19 11:30:39;;;;;;;7.65;4.80;;;;;;;;;;5109324;28;20034;-67
2021/10/19 11:33:09;;;;;;;8.75;4.35;;;;;;;;;;5109686;28;20490;-66
2021/10/19 11:35:35;;;;;;;8.40;4.07;;;;;;;;;;5110510;28;20426;-66
2021/10/19 11:38:02;;;;;;;7.82;3.95;;;;;;;;;;5109890;28;20081;-66
2021/10/19 11:40:28;;;;;;;7.63;4.32;;;;;;;;;;5109774;28;20022;-67
2021/10/19 11:42:56;;;;;;;7.00;4.40;;;;;;;;;;5110015;28;20069;-67
2021/10/19 11:45:23;;;;;;;10.20;5.82;;;;;;;;;;5108632;28;20050;-66
2021/10/19 11:47:57;;;;;;;10.93;5.57;;;;;;;;;;5109523;28;20032;-67
2021/10/19 11:50:24;;;;;;;8.27;5.60;;;;;;;;;;5110081;28;20031;-68
2021/10/19 11:52:51;;;;;;;8.90;5.20;;;;;;;;;;5109677;28;20019;-70
2021/10/19 11:55:18;;;;;;;8.07;4.85;;;;;;;;;;5109567;28;20103;-70
2021/10/19 11:57:49;;;;;;;7.88;4.65;;;;;;;;;;5109954;28;20035;-68
2021/10/19 12:00:15;;;;;;;11.90;6.68;;;;;;;;;;5109946;28;20020;-67
2021/10/19 12:02:52;;;;;;;7.88;4.50;;;;;;;;;;5106553;28;20387;-67
2021/10/19 12:05:21;;;;;;;8.38;4.85;;;;;;;;;;5110251;28;20378;-68
2021/10/19 12:08:34;;;;;;;7.60;3.92;;;;;;;;;;5122941;27;20472;-69
2021/10/19 12:13:12;;;;;;;7.72;4.20;;;;;;;;;;5072458;28;20420;-69
2021/10/19 12:15:41;;;;;;;7.40;4.30;;;;;;;;;;5074714;28;20048;-69
2021/10/19 12:18:09;;;;;;;7.30;4.25;;;;;;;;;;5069974;28;20103;-68
2021/10/19 12:20:37;;;;;;;8.30;5.05;;;;;;;;;;5068371;28;20028;-68
2021/10/19 12:23:13;;;;;;;8.55;4.35;;;;;;;;;;5052198;28;20495;-66
2021/10/19 12:25:50;;;;;;;8.88;4.80;;;;;;;;;;5070114;28;20107;-66
2021/10/19 12:28:21;;;;;;;7.13;4.15;;;;;;;;;;5057341;28;20525;-65
2021/10/19 12:30:48;;;;;;;9.57;4.60;;;;;;;;;;5068642;28;20083;-65
2021/10/19 12:33:22;;;;;;;6.72;4.03;;;;;;;;;;5068474;28;20035;-66
2021/10/19 12:36:00;;;;;;;7.90;4.18;;;;;;;;;;5069606;28;20082;-65
2021/10/19 12:38:37;;;;;;;7.15;4.00;;;;;;;;;;5068474;28;20029;-65
2021/10/19 12:41:07;;;;;;;8.13;4.75;;;;;;;;;;5069958;28;20435;-65
2021/10/19 12:43:33;;;;;;;8.23;4.90;;;;;;;;;;5068525;28;20025;-66
2021/10/19 12:46:05;;;;;;;7.32;4.03;;;;;;;;;;5069851;28;20029;-69
2021/10/19 12:48:33;;;;;;;6.88;4.18;;;;;;;;;;5069871;28;20099;-69
2021/10/19 12:51:03;;;;;;;7.13;4.53;;;;;;;;;;5065416;28;20033;-69
2021/10/19 12:53:29;;;;;;;13.45;5.22;;;;;;;;;;5069876;28;20052;-68
2021/10/19 12:55:56;;;;;;;9.43;5.05;;;;;;;;;;5069599;28;20025;-70
2021/10/19 12:58:22;;;;;;;9.30;4.72;;;;;;;;;;5069336;28;20025;-69
2021/10/19 13:00:48;;;;;;;10.30;6.22;;;;;;;;;;5068744;28;20017;-68
2021/10/19 13:03:15;;;;;;;14.68;6.00;;;;;;;;;;5069342;28;20032;-69
2021/10/19 13:05:43;;;;;;;8.63;4.38;;;;;;;;;;5069338;28;20025;-68
2021/10/19 13:08:09;;;;;;;6.93;3.88;;;;;;;;;;5068460;28;20064;-68
2021/10/19 13:10:35;;;;;;;9.50;3.97;;;;;;;;;;5069732;28;20150;-69
2021/10/19 13:13:01;;;;;;;7.15;4.18;;;;;;;;;;5068822;28;20139;-68
2021/10/19 13:15:27;;;;;;;8.02;4.53;;;;;;;;;;5069318;28;20097;-69
2021/10/19 13:17:54;;;;;;;5.85;3.60;;;;;;;;;;5062617;28;20025;-69
2021/10/19 13:20:20;;;;;;;7.60;4.18;;;;;;;;;;5069988;28;20119;-69
2021/10/19 13:22:46;;;;;;;6.70;3.95;;;;;;;;;;5065132;28;20508;-69
2021/10/19 13:25:12;;;;;;;5.72;3.53;;;;;;;;;;5055750;28;20017;-68
2021/10/19 13:27:39;;;;;;;7.72;4.18;;;;;;;;;;5056316;28;20354;-68
2021/10/19 13:30:07;;;;;;;7.47;4.38;;;;;;;;;;5043791;28;20071;-68
2021/10/19 13:32:33;;;;;;;6.40;3.95;;;;;;;;;;5035579;28;20506;-68
2021/10/19 13:34:59;;;;;;;8.43;4.82;;;;;;;;;;5035966;28;20063;-67
2021/10/19 13:37:26;;;;;;;8.45;4.70;;;;;;;;;;5035933;28;20033;-67
2021/10/19 13:39:52;;;;;;;8.95;4.80;;;;;;;;;;5035493;28;20033;-68
2021/10/19 13:42:18;;;;;;;6.95;4.15;;;;;;;;;;5038466;28;20035;-68
2021/10/19 13:44:45;;;;;;;7.13;4.10;;;;;;;;;;5035710;28;20096;-68
2021/10/19 13:47:11;;;;;;;9.50;5.05;;;;;;;;;;5035441;28;20030;-68
2021/10/19 13:49:37;;;;;;;8.63;4.63;;;;;;;;;;5035679;28;20359;-67
2021/10/19 13:52:03;;;;;;;8.43;5.00;;;;;;;;;;5053873;28;20374;-67
2021/10/19 13:54:33;;;;;;;13.45;11.95;;;;;;;;;;5052811;28;20019;-66
2021/10/19 13:56:59;;;;;;;9.13;4.90;;;;;;;;;;5052876;28;20078;-67
2021/10/19 13:59:25;;;;;;;12.45;6.28;;;;;;;;;;5055198;28;20071;-67
2021/10/19 14:01:51;;;;;;;8.45;5.00;;;;;;;;;;5054848;28;20078;-67
2021/10/19 14:04:18;;;;;;;10.15;5.70;;;;;;;;;;5055430;28;20096;-66
2021/10/19 14:06:44;;;;;;;8.70;5.07;;;;;;;;;;5054021;28;20045;-67
2021/10/19 14:09:10;;;;;;;7.10;4.32;;;;;;;;;;5054689;28;20017;-67
2021/10/19 14:11:36;;;;;;;7.03;4.82;;;;;;;;;;5052190;28;20830;-67
2021/10/19 14:14:10;;;;;;;7.72;4.88;;;;;;;;;;5054165;28;20035;-67
2021/10/19 14:16:37;;;;;;;6.15;4.03;;;;;;;;;;5050355;28;20017;-67
2021/10/19 14:19:04;;;;;;;7.63;4.80;;;;;;;;;;5054592;28;20020;-67
2021/10/19 14:21:31;;;;;;;8.60;4.88;;;;;;;;;;5054768;28;20032;-67
2021/10/19 14:23:58;;;;;;;10.00;6.47;;;;;;;;;;5054997;28;20507;-67
2021/10/19 14:26:24;;;;;;;10.77;6.13;;;;;;;;;;5053975;28;20493;-67
2021/10/19 14:28:51;;;;;;;15.18;6.30;;;;;;;;;;5054515;28;20025;-68
2021/10/19 14:31:17;;;;;;;9.32;4.40;;;;;;;;;;5054343;28;20017;-67
2021/10/19 14:33:44;;;;;;;10.15;6.20;;;;;;;;;;5054661;28;20046;-67
2021/10/19 14:36:10;;;;;;;11.63;6.90;;;;;;;;;;5051990;28;20048;-67
2021/10/19 14:38:37;;;;;;;13.90;9.13;;;;;;;;;;5054563;28;20358;-66
2021/10/19 14:41:03;;;;;;;13.18;8.95;;;;;;;;;;5054662;28;20025;-67
2021/10/19 14:43:30;;;;;;;11.88;7.60;;;;;;;;;;5054199;28;20097;-67
2021/10/19 14:45:57;;;;;;;14.30;7.65;;;;;;;;;;5046552;28;20040;-68
2021/10/19 14:48:24;;;;;;;15.07;10.27;;;;;;;;;;5036925;28;20017;-68
2021/10/19 14:50:52;;;;;;;14.60;9.57;;;;;;;;;;5050886;28;20071;-68
2021/10/19 14:53:18;;;;;;;16.20;9.77;;;;;;;;;;5053474;28;20040;-67
2021/10/19 14:55:44;;;;;;;14.10;8.45;;;;;;;;;;5063315;28;20017;-68
2021/10/19 14:58:11;;;;;;;18.33;12.15;;;;;;;;;;5072232;28;20472;-67
2021/10/19 15:00:37;;;;;;;17.15;10.60;;;;;;;;;;5071932;28;20017;-67
2021/10/19 15:03:03;;;;;;;16.48;10.88;;;;;;;;;;5073968;28;20032;-67
2021/10/19 15:05:30;;;;;;;18.25;13.50;;;;;;;;;;5066358;28;20024;-67
2021/10/19 15:07:57;;;;;;;23.08;17.27;;;;;;;;;;5070311;28;20404;-67
2021/10/19 15:10:23;;;;;;;27.38;19.25;;;;;;;;;;5069923;28;20420;-67
2021/10/19 15:12:50;;;;;;;25.55;19.23;;;;;;;;;;5073690;28;20045;-68
2021/10/19 15:15:16;;;;;;;32.47;23.30;;;;;;;;;;5063840;28;20056;-67
2021/10/19 15:17:43;;;;;;;35.33;24.17;;;;;;;;;;5053720;28;20141;-68
2021/10/19 15:20:10;;;;;;;34.65;21.48;;;;;;;;;;5053280;28;20100;-67
2021/10/19 15:22:36;;;;;;;32.00;18.92;;;;;;;;;;5054320;28;20032;-67
2021/10/19 15:25:04;;;;;;;30.02;17.65;;;;;;;;;;5054986;28;20111;-67
2021/10/19 15:28:06;;;;;;;27.67;19.10;;;;;;;;;;5111100;27;20400;-69
2021/10/19 15:30:32;;;;;;;32.53;20.73;;;;;;;;;;5111609;28;20028;-68
2021/10/19 15:32:59;;;;;;;28.80;18.45;;;;;;;;;;5110904;28;20031;-67